createdAt,value
2022-11-13T00:00:16.322Z,10.40
2022-11-13T00:03:14.343Z,10.30
2022-11-13T00:06:03.781Z,10.30
2022-11-13T00:09:03.612Z,10.40
2022-11-13T00:11:53.856Z,10.40
2022-11-13T00:15:40.101Z,10.40
2022-11-13T00:18:32.815Z,10.50
2022-11-13T00:21:25.225Z,10.40
2022-11-13T00:24:13.399Z,10.40
2022-11-13T00:27:01.435Z,10.40
2022-11-13T00:29:54.992Z,10.40
2022-11-13T00:32:43.652Z,10.40
2022-11-13T00:36:03.051Z,10.30
2022-11-13T00:38:53.243Z,10.30
2022-11-13T00:41:41.762Z,10.40
2022-11-13T00:44:30.655Z,10.40
2022-11-13T00:47:19.714Z,10.40
2022-11-13T01:10:21.775Z,10.40
2022-11-13T01:16:43.743Z,10.30
2022-11-13T01:23:32.499Z,10.40
2022-11-13T01:37:55.035Z,10.40
2022-11-13T01:40:49.752Z,10.50
2022-11-13T01:43:42.096Z,10.40
2022-11-13T01:46:40.812Z,10.50
2022-11-13T01:49:35.093Z,10.50
2022-11-13T01:52:30.674Z,10.50
2022-11-13T01:55:21.047Z,10.50
2022-11-13T02:01:46.441Z,10.50
2022-11-13T02:04:37.181Z,10.50
2022-11-13T02:07:25.550Z,10.40
2022-11-13T02:10:13.964Z,10.40
2022-11-13T02:13:09.697Z,10.40
2022-11-13T02:16:03.039Z,10.40
2022-11-13T02:18:52.613Z,10.40
2022-11-13T02:21:50.133Z,10.40
2022-11-13T02:24:45.592Z,10.40
2022-11-13T02:27:38.707Z,10.50
2022-11-13T02:30:30.345Z,10.50
2022-11-13T02:33:25.393Z,10.50
2022-11-13T02:36:14.469Z,10.50
2022-11-13T02:39:08.358Z,10.50
2022-11-13T02:41:58.879Z,10.50
2022-11-13T02:44:47.853Z,10.50
2022-11-13T02:47:37.135Z,10.50
2022-11-13T02:50:28.746Z,10.50
2022-11-13T02:53:17.516Z,10.60
2022-11-13T02:56:05.706Z,10.50
2022-11-13T02:58:55.538Z,10.50
2022-11-13T03:01:43.920Z,10.40
2022-11-13T03:04:57.287Z,10.40
2022-11-13T03:07:40.285Z,10.40
2022-11-13T03:10:28.565Z,10.40
2022-11-13T03:13:17.681Z,10.40
2022-11-13T03:16:15.975Z,10.30
2022-11-13T03:19:05.070Z,10.30
2022-11-13T03:21:54.048Z,10.30
2022-11-13T03:24:42.900Z,10.30
2022-11-13T03:27:33.947Z,10.20
2022-11-13T03:30:22.651Z,10.20
2022-11-13T03:33:12.491Z,10.30
2022-11-13T03:36:01.020Z,10.30
2022-11-13T03:38:49.376Z,10.30
2022-11-13T03:41:40.316Z,10.30
2022-11-13T03:44:28.255Z,10.30
2022-11-13T03:47:17.103Z,10.30
2022-11-13T03:50:09.311Z,10.30
2022-11-13T03:56:04.070Z,10.30
2022-11-13T03:58:52.006Z,10.30
2022-11-13T04:01:40.085Z,10.30
2022-11-13T04:04:28.175Z,10.30
2022-11-13T04:07:17.752Z,10.40
2022-11-13T04:10:06.813Z,10.40
2022-11-13T04:12:55.516Z,10.40
2022-11-13T04:15:44.496Z,10.50
2022-11-13T05:14:20.860Z,10.30
2022-11-13T05:17:11.785Z,10.30
2022-11-13T05:20:00.657Z,10.30
2022-11-13T05:22:49.076Z,10.30
2022-11-13T05:25:55.184Z,10.30
2022-11-13T05:28:45.915Z,10.40
2022-11-13T05:31:35.545Z,10.40
2022-11-13T05:34:24.204Z,10.30
2022-11-13T05:37:12.595Z,10.30
2022-11-13T05:40:03.846Z,10.30
2022-11-13T05:42:54.696Z,10.40
2022-11-13T05:45:43.520Z,10.40
2022-11-13T05:48:33.540Z,10.30
2022-11-13T05:51:23.907Z,10.30
2022-11-13T05:54:13.278Z,10.30
2022-11-13T05:57:01.172Z,10.30
2022-11-13T05:59:51.471Z,10.30
2022-11-13T06:02:39.265Z,10.30
2022-11-13T06:05:28.906Z,10.30
2022-11-13T06:08:17.061Z,10.30
2022-11-13T06:11:11.868Z,10.30
2022-11-13T06:14:08.770Z,10.40
2022-11-13T06:17:15.919Z,10.50
2022-11-13T06:20:04.971Z,10.50
2022-11-13T06:29:37.359Z,10.40
2022-11-13T06:35:30.538Z,10.60
2022-11-13T06:38:18.555Z,10.60
2022-11-13T06:41:07.826Z,10.60
2022-11-13T06:44:01.152Z,10.60
2022-11-13T06:46:50.589Z,10.60
2022-11-13T06:49:41.915Z,10.60
2022-11-13T06:52:31.591Z,10.50
2022-11-13T06:55:19.652Z,10.50
2022-11-13T06:58:07.639Z,10.50
2022-11-13T07:00:56.740Z,10.50
2022-11-13T07:03:45.363Z,10.50
2022-11-13T07:13:35.881Z,10.50
2022-11-13T07:16:24.644Z,10.60
2022-11-13T07:19:13.865Z,10.70
2022-11-13T07:22:04.109Z,10.80
2022-11-13T07:24:53.021Z,10.80
2022-11-13T07:27:46.756Z,10.90
2022-11-13T07:30:36.476Z,10.80
2022-11-13T07:33:24.537Z,10.90
2022-11-13T07:36:12.851Z,10.90
2022-11-13T07:39:00.930Z,11.00
2022-11-13T07:41:49.656Z,10.90
2022-11-13T07:44:54.216Z,10.90
2022-11-13T07:47:44.304Z,10.90
2022-11-13T07:50:36.029Z,11.00
2022-11-13T07:53:25.224Z,11.00
2022-11-13T07:56:22.745Z,11.00
2022-11-13T07:59:14.390Z,11.00
2022-11-13T08:02:02.798Z,11.00
2022-11-13T08:04:52.363Z,11.00
2022-11-13T08:07:41.091Z,11.10
2022-11-13T08:10:30.342Z,11.00
2022-11-13T08:13:18.664Z,11.00
2022-11-13T08:16:09.550Z,10.90
2022-11-13T08:18:58.080Z,10.80
2022-11-13T08:21:48.130Z,10.80
2022-11-13T08:24:37.171Z,10.90
2022-11-13T08:27:25.563Z,10.90
2022-11-13T08:30:16.056Z,10.90
2022-11-13T08:33:05.409Z,10.90
2022-11-13T08:35:59.477Z,11.00
2022-11-13T08:38:50.563Z,11.00
2022-11-13T08:41:38.762Z,11.10
2022-11-13T08:44:27.394Z,11.00
2022-11-13T08:47:16.124Z,10.90
2022-11-13T08:50:04.526Z,10.90
2022-11-13T08:52:56.645Z,10.90
2022-11-13T08:55:48.386Z,11.00
2022-11-13T08:58:37.230Z,11.10
2022-11-13T09:01:27.802Z,11.00
2022-11-13T09:04:15.936Z,11.10
2022-11-13T09:44:45.474Z,11.30
2022-11-13T09:47:38.882Z,11.30
2022-11-13T09:50:31.244Z,11.40
2022-11-13T09:53:21.467Z,11.40
2022-11-13T09:56:27.162Z,11.50
2022-11-13T09:59:26.570Z,11.40
2022-11-13T10:02:23.499Z,11.50
2022-11-13T10:05:21.377Z,11.40
2022-11-13T10:08:15.484Z,11.50
2022-11-13T10:11:11.284Z,11.50
2022-11-13T10:14:04.109Z,11.50
2022-11-13T10:16:56.772Z,11.50
2022-11-13T10:19:57.333Z,11.50
2022-11-13T10:22:52.145Z,11.60
2022-11-13T10:25:56.296Z,11.60
2022-11-13T10:28:54.419Z,11.70
2022-11-13T10:31:58.659Z,11.60
2022-11-13T10:34:53.614Z,11.60
2022-11-13T10:37:50.884Z,11.60
2022-11-13T10:40:48.525Z,11.50
2022-11-13T10:43:38.218Z,11.50
2022-11-13T10:46:40.676Z,11.50
2022-11-13T10:49:34.773Z,11.40
2022-11-13T10:52:35.795Z,11.40
2022-11-13T10:55:31.751Z,11.50
2022-11-13T10:58:26.934Z,11.50
2022-11-13T11:01:29.848Z,11.50
2022-11-13T11:04:28.501Z,11.60
2022-11-13T11:07:21.336Z,11.60
2022-11-13T11:10:23.169Z,11.50
2022-11-13T11:13:14.824Z,11.50
2022-11-13T11:16:20.493Z,11.40
2022-11-13T11:19:13.740Z,11.40
2022-11-13T11:22:10.694Z,11.50
2022-11-13T11:25:06.687Z,11.50
2022-11-13T11:28:02.497Z,11.50
2022-11-13T11:31:05.829Z,11.50
2022-11-13T11:34:02.368Z,11.50
2022-11-13T11:37:00.676Z,11.60
2022-11-13T11:39:52.153Z,11.60
2022-11-13T11:42:48.826Z,11.60
2022-11-13T11:45:41.997Z,11.70
2022-11-13T11:48:32.712Z,11.70
2022-11-13T11:51:28.105Z,11.70
2022-11-13T11:54:27.399Z,11.80
2022-11-13T11:57:41.911Z,11.90
2022-11-13T12:00:34.156Z,11.90
2022-11-13T12:03:51.783Z,12.00
2022-11-13T12:06:51.535Z,12.00
2022-11-13T12:09:45.782Z,12.00
2022-11-13T12:12:50.525Z,12.00
2022-11-13T12:15:47.519Z,12.00
2022-11-13T12:22:46.922Z,12.10
2022-11-13T12:25:40.626Z,12.00
2022-11-13T12:28:40.635Z,12.10
2022-11-13T12:31:43.740Z,12.10
2022-11-13T12:34:37.658Z,12.20
2022-11-13T12:37:36.373Z,12.20
2022-11-13T12:40:38.617Z,12.10
2022-11-13T12:43:45.708Z,12.20
2022-11-13T12:46:42.922Z,12.20
2022-11-13T12:49:34.257Z,12.20
2022-11-13T12:52:24.855Z,12.20
2022-11-13T12:55:30.089Z,12.30
2022-11-13T12:58:23.650Z,12.30
2022-11-13T13:01:22.068Z,12.20
2022-11-13T13:04:43.554Z,12.30
2022-11-13T13:07:55.658Z,12.20
2022-11-13T13:10:56.274Z,12.20
2022-11-13T13:13:51.176Z,12.20
2022-11-13T13:16:39.817Z,12.10
2022-11-13T13:19:30.959Z,12.10
2022-11-13T13:22:31.955Z,12.00
2022-11-13T13:48:50.073Z,12.10
2022-11-13T13:51:44.175Z,12.00
2022-11-13T13:54:35.189Z,11.90
2022-11-13T13:57:25.066Z,11.80
2022-11-13T14:00:23.319Z,12.00
2022-11-13T14:03:23.060Z,11.90
2022-11-13T14:06:44.247Z,11.70
2022-11-13T14:13:14.704Z,11.40
2022-11-13T14:16:04.784Z,11.30
2022-11-13T14:18:55.957Z,11.20
2022-11-13T14:21:46.357Z,11.20
2022-11-13T14:24:40.340Z,11.20
2022-11-13T14:27:31.416Z,11.20
2022-11-13T14:30:27.787Z,11.20
2022-11-13T14:33:20.686Z,11.20
2022-11-13T14:36:09.964Z,11.10
2022-11-13T14:38:59.057Z,11.20
2022-11-13T14:41:52.059Z,11.20
2022-11-13T14:44:41.845Z,11.10
2022-11-13T14:47:38.907Z,11.10
2022-11-13T14:50:29.764Z,11.00
2022-11-13T14:53:49.748Z,11.00
2022-11-13T14:56:43.674Z,11.00
2022-11-13T14:59:34.936Z,11.00
2022-11-13T15:02:28.946Z,11.00
2022-11-13T15:05:18.730Z,10.90
2022-11-13T15:08:08.741Z,10.70
2022-11-13T15:10:59.492Z,10.80
2022-11-13T15:13:50.069Z,10.70
2022-11-13T15:16:42.745Z,10.60
2022-11-13T15:19:43.078Z,10.50
2022-11-13T15:22:36.040Z,10.40
2022-11-13T15:25:27.997Z,10.40
2022-11-13T15:28:20.294Z,10.40
2022-11-13T15:31:24.628Z,10.30
2022-11-13T15:34:14.061Z,10.30
2022-11-13T15:37:12.429Z,10.20
2022-11-13T15:40:05.991Z,10.30
2022-11-13T15:42:56.538Z,10.30
2022-11-13T15:45:47.431Z,10.20
2022-11-13T15:48:45.123Z,10.30
2022-11-13T16:31:46.789Z,10.70
2022-11-13T16:34:53.347Z,10.60
2022-11-13T16:37:46.063Z,10.60
2022-11-13T16:40:37.152Z,10.70
2022-11-13T16:43:26.902Z,10.70
2022-11-13T16:46:24.797Z,10.50
2022-11-13T16:49:19.806Z,10.70
2022-11-13T16:52:09.342Z,10.70
2022-11-13T16:55:06.271Z,10.60
2022-11-13T16:57:58.218Z,10.50
2022-11-13T17:00:47.975Z,10.50
2022-11-13T17:03:39.781Z,10.50
2022-11-13T17:06:34.928Z,10.50
2022-11-13T17:09:26.069Z,10.40
2022-11-13T17:12:55.598Z,10.50
2022-11-13T17:22:42.613Z,10.50
2022-11-13T17:30:28.170Z,10.60
2022-11-13T17:33:36.597Z,10.70
2022-11-13T17:36:27.619Z,10.70
2022-11-13T17:39:26.704Z,10.70
2022-11-13T17:42:43.015Z,10.70
2022-11-13T17:45:38.269Z,10.70
2022-11-13T17:51:56.530Z,10.70
2022-11-13T17:54:47.013Z,10.60
2022-11-13T17:57:47.046Z,10.60
2022-11-13T18:00:46.512Z,10.60
2022-11-13T18:03:43.795Z,10.70
2022-11-13T18:10:18.550Z,10.70
2022-11-13T18:14:50.565Z,10.60
2022-11-13T18:28:11.294Z,10.70
2022-11-13T18:31:11.518Z,10.60
2022-11-13T18:34:07.623Z,10.60
2022-11-13T18:37:00.698Z,10.70
2022-11-13T18:39:50.260Z,10.60
2022-11-13T18:42:46.378Z,10.70
2022-11-13T18:45:42.335Z,10.60
2022-11-13T18:48:36.898Z,10.60
2022-11-13T18:51:33.692Z,10.60
2022-11-13T18:54:23.878Z,10.60
2022-11-13T18:57:22.745Z,10.70
2022-11-13T19:15:58.150Z,10.40
2022-11-13T19:19:17.881Z,10.30
2022-11-13T19:22:26.179Z,10.30
2022-11-13T19:25:19.286Z,10.30
2022-11-13T19:28:23.895Z,10.30
2022-11-13T19:31:21.385Z,10.30
2022-11-13T19:34:13.217Z,10.20
2022-11-13T19:37:06.018Z,10.30
2022-11-13T19:40:00.688Z,10.30
2022-11-13T19:46:44.317Z,10.30
2022-11-13T19:49:36.195Z,10.40
2022-11-13T20:13:12.508Z,10.20
2022-11-13T20:17:05.475Z,10.20
2022-11-13T20:24:02.933Z,10.20
2022-11-13T20:26:54.348Z,10.10
2022-11-13T20:29:44.520Z,10.00
2022-11-13T21:12:35.125Z,9.70
2022-11-13T21:15:25.959Z,9.50
2022-11-13T21:18:28.796Z,9.60
2022-11-13T21:21:22.240Z,9.60
2022-11-13T21:27:40.481Z,9.70
2022-11-13T21:30:30.481Z,9.70
2022-11-13T21:33:19.307Z,9.70
2022-11-13T22:16:24.372Z,9.60
2022-11-13T23:02:58.936Z,9.40
